El Rito, NM (87530)

9:37 AM MST on December 25, 2014 (GMT -0700)
Los Alamos | Change Station
CLOSE
Current Station
Airport
Location: Los Alamos,
Elevation: 7172 ft
Nearby Weather Stations
Active Advisory: Winter Storm Warning Active Notice: Public Information Statement

Elev 7172 ft 35.88 °N, 106.27 °W | Updated 22 minutes ago

Overcast
Overcast
33 °F
Feels Like 25 °F
N
10
Wind Variable Wind from SSW
Gusts 16 mph

Today
High -- | Low -- °F
--% Chance of Precip.
Yesterday
High -- | Low -- °F
Precip. -- in
7:14 AM 4:56 PM
Waxing Crescent, 17% visible
Pressure 29.72 in
Visibility 10.0 miles
Clouds Scattered Clouds 5500 ft
Mostly Cloudy 7000 ft
Overcast 8000 ft
Windchill 25 °F
Dew Point 8 °F
Humidity 35%
Rainfall 0.00 in
Snow Depth Not available.
UV 0 out of 12
Pollen .10 out of 12
Air Quality Not available.
Flu Activity Not available.
METAR KLAM 251615Z AUTO 21009G14KT 10SM SCT055 BKN070 OVC080 01/M13 A2972 RMK AO2 T00051134

More Conditions Fewer Conditions

Pressure 29.72 in
Visibility 10.0 miles
Clouds Scattered Clouds 5500 ft
Mostly Cloudy 7000 ft
Overcast 8000 ft
Windchill 25 °F
Dew Point 8 °F
Humidity 35%
Rainfall 0.00 in
Snow Depth Not available.
UV 0 out of 12
Pollen .10 out of 12
Air Quality Not available.
Flu Activity Not available.
METAR KLAM 251615Z AUTO 21009G14KT 10SM SCT055 BKN070 OVC080 01/M13 A2972 RMK AO2 T00051134

More Conditions Fewer Conditions

Nowcast | as of 9:30 am MST on December 25, 2014

Through late morning scattered to isolated light snow showers will continue to develop across west central and northwest areas along and west of the Continental Divide. Stronger showers may drop the visibility to around 3 miles at times. By noon up to 1 inch of snow accumulation will be possible in the mountains north of I-40...mainly on west facing slopes.

×

10-Day Weather Forecast

Almanac

Astronomy

Dec. 25, 2014 Rise Set
Actual Time
Civil Twilight
Nautical Twilight
Astronomical Twilight
Moon
Length of Visible Light
Length of Day
Tomorrow will be .
, % of the Moon is Illuminated

Today's Extremes

State Highs State Lows

Community

WunderPhotos

Upload Photos

1,780,336 photos uploaded!

WunderBlogs® & News

Nearby

Air Quality

  Air Quality AQ Index Pollutant
Not available.

Snow Depth

Station Depth Elevation

Earthquake Activity

City Distance Mag. Time & Date
Minimum magnitude displayed is 2.5.

Coastal Water Temperatures

Place Temperature

Nearby Weather Stations